Terminal Aerodrome Forecast
Issued by NWS

Home | Current Version | Previous Version | Text Only | Print | Product List | Glossary On
Versions: 1 2 3 4 5 6 7 8 9 10 11 12 13 14 15 16 17 18 19 20 21 22
000
FTUS44 KMAF 051158 AAA
TAFCNM
TAF AMD
KCNM 051158Z 0512/0612 VRB05KT P6SM SKC
      TEMPO 0512/0514 1SM BR BKN002
     FM052100 25014KT P6SM SCT150=

USA.gov is the U.S. government's official web portal to all federal, state and local government web resources and services.